Time;durP1;ratioP1;P1;durP2;ratioP2;P2;SDS_P1;SDS_P2;PMS_P1;PMS_P2;Temp;Humidity;BMP_temperature;BMP_pressure;BME280_temperature;BME280_humidity;BME280_pressure;Samples;Min_cycle;Max_cycle;Signal;HPM_P1;HPM_P2
2023/07/12 00:02:09;;;;;;;2.65;2.50;;;;;;;;;;5056958;28;20235;-59
2023/07/12 00:04:37;;;;;;;3.00;2.78;;;;;;;;;;5059325;28;20250;-59
2023/07/12 00:07:05;;;;;;;2.70;2.58;;;;;;;;;;5062890;28;20211;-59
2023/07/12 00:09:32;;;;;;;3.00;2.53;;;;;;;;;;5056405;28;20741;-59
2023/07/12 00:11:59;;;;;;;2.72;2.53;;;;;;;;;;5057802;28;20218;-60
2023/07/12 00:14:26;;;;;;;2.63;2.42;;;;;;;;;;5059182;28;20301;-60
2023/07/12 00:16:53;;;;;;;2.67;2.55;;;;;;;;;;5056706;28;20345;-60
2023/07/12 00:19:20;;;;;;;2.88;2.67;;;;;;;;;;5057185;28;20214;-60
2023/07/12 00:21:47;;;;;;;3.00;2.45;;;;;;;;;;5055646;28;20203;-60
2023/07/12 00:24:16;;;;;;;2.63;2.53;;;;;;;;;;5057335;28;20206;-60
2023/07/12 00:26:43;;;;;;;2.20;2.10;;;;;;;;;;5058295;28;20704;-61
2023/07/12 00:29:10;;;;;;;2.60;2.40;;;;;;;;;;5058864;28;20211;-60
2023/07/12 00:31:37;;;;;;;2.40;2.22;;;;;;;;;;5057863;28;20214;-60
2023/07/12 00:34:04;;;;;;;2.42;2.22;;;;;;;;;;5055939;28;20223;-60
2023/07/12 00:36:32;;;;;;;2.50;2.33;;;;;;;;;;5057063;28;20202;-61
2023/07/12 00:39:00;;;;;;;2.55;2.20;;;;;;;;;;5057684;28;20250;-60
2023/07/12 00:41:31;;;;;;;2.20;2.10;;;;;;;;;;5059009;28;20210;-60
2023/07/12 00:44:01;;;;;;;3.50;2.45;;;;;;;;;;5057762;28;20284;-60
2023/07/12 00:46:30;;;;;;;2.28;2.17;;;;;;;;;;5062396;28;20206;-60
2023/07/12 00:48:58;;;;;;;2.38;2.17;;;;;;;;;;5063494;28;20237;-60
2023/07/12 00:51:35;;;;;;;2.40;2.17;;;;;;;;;;5059781;28;20210;-60
2023/07/12 00:54:02;;;;;;;1.77;1.70;;;;;;;;;;5058520;28;20602;-60
2023/07/12 00:56:30;;;;;;;2.85;2.00;;;;;;;;;;5048359;28;20210;-60
2023/07/12 00:58:59;;;;;;;2.10;1.67;;;;;;;;;;5046544;28;20265;-61
2023/07/12 01:01:27;;;;;;;2.30;2.20;;;;;;;;;;5044104;28;20218;-60
2023/07/12 01:03:54;;;;;;;2.88;2.08;;;;;;;;;;5044479;28;20291;-61
2023/07/12 01:06:21;;;;;;;2.47;2.38;;;;;;;;;;5050451;28;20246;-60
2023/07/12 01:08:49;;;;;;;1.98;1.88;;;;;;;;;;5053011;28;20214;-60
2023/07/12 01:11:18;;;;;;;2.60;1.90;;;;;;;;;;5054467;28;20221;-60
2023/07/12 01:13:50;;;;;;;2.50;1.88;;;;;;;;;;5068149;28;20234;-60
2023/07/12 01:16:18;;;;;;;2.53;2.10;;;;;;;;;;5067798;28;20256;-60
2023/07/12 01:18:45;;;;;;;2.20;2.05;;;;;;;;;;5050047;28;20212;-60
2023/07/12 01:21:15;;;;;;;1.65;1.60;;;;;;;;;;5048477;28;20211;-61
2023/07/12 01:23:43;;;;;;;2.85;2.15;;;;;;;;;;5048415;28;20561;-60
2023/07/12 01:26:18;;;;;;;2.17;2.08;;;;;;;;;;5048192;28;20214;-60
2023/07/12 01:28:46;;;;;;;1.92;1.90;;;;;;;;;;5059208;28;20683;-60
2023/07/12 01:31:13;;;;;;;2.47;2.38;;;;;;;;;;5063927;28;20202;-61
2023/07/12 01:33:41;;;;;;;2.95;2.38;;;;;;;;;;5065420;28;20262;-60
2023/07/12 01:36:08;;;;;;;2.67;1.92;;;;;;;;;;5064777;28;20207;-60
2023/07/12 01:38:36;;;;;;;2.15;2.05;;;;;;;;;;5054561;28;20214;-60
2023/07/12 01:41:03;;;;;;;2.60;2.17;;;;;;;;;;5051486;28;20355;-60
2023/07/12 01:43:30;;;;;;;1.90;1.85;;;;;;;;;;5042434;28;20278;-60
2023/07/12 01:45:57;;;;;;;3.10;1.90;;;;;;;;;;5048046;28;20898;-60
2023/07/12 01:48:24;;;;;;;1.75;1.67;;;;;;;;;;5057762;28;20207;-60
2023/07/12 01:50:51;;;;;;;4.38;1.90;;;;;;;;;;5058119;28;20298;-60
2023/07/12 01:53:18;;;;;;;1.80;1.73;;;;;;;;;;5044616;28;20231;-60
2023/07/12 01:55:47;;;;;;;1.88;1.88;;;;;;;;;;5039952;28;20378;-60
2023/07/12 01:58:14;;;;;;;1.42;1.42;;;;;;;;;;5046524;28;20202;-60
2023/07/12 02:00:41;;;;;;;2.08;1.98;;;;;;;;;;5058374;28;20211;-60
2023/07/12 02:03:08;;;;;;;1.98;1.85;;;;;;;;;;5066575;28;20269;-61
2023/07/12 02:05:35;;;;;;;1.67;1.60;;;;;;;;;;5064854;28;20246;-60
2023/07/12 02:08:02;;;;;;;1.75;1.70;;;;;;;;;;5066452;28;20212;-60
2023/07/12 02:10:29;;;;;;;1.65;1.60;;;;;;;;;;5065692;28;20213;-60
2023/07/12 02:12:57;;;;;;;2.08;1.88;;;;;;;;;;5065302;28;20209;-60
2023/07/12 02:15:24;;;;;;;1.73;1.63;;;;;;;;;;5065983;28;20234;-60
2023/07/12 02:17:52;;;;;;;2.05;2.00;;;;;;;;;;5062366;28;20199;-60
2023/07/12 02:20:19;;;;;;;2.05;1.67;;;;;;;;;;5063010;28;20203;-60
2023/07/12 02:22:47;;;;;;;1.77;1.77;;;;;;;;;;5059041;28;20692;-60
2023/07/12 02:25:14;;;;;;;1.40;1.40;;;;;;;;;;5043554;28;20294;-60
2023/07/12 02:27:41;;;;;;;1.70;1.60;;;;;;;;;;5039780;28;20212;-60
2023/07/12 02:30:11;;;;;;;1.67;1.58;;;;;;;;;;5056885;28;20412;-60
2023/07/12 02:32:38;;;;;;;1.77;1.60;;;;;;;;;;5071141;28;20218;-60
2023/07/12 02:35:06;;;;;;;2.17;1.90;;;;;;;;;;5067399;28;20230;-60
2023/07/12 02:37:33;;;;;;;1.70;1.67;;;;;;;;;;5050688;28;20216;-60
2023/07/12 02:40:00;;;;;;;1.65;1.58;;;;;;;;;;5059108;28;20211;-60
2023/07/12 02:42:27;;;;;;;1.73;1.63;;;;;;;;;;5050690;28;20395;-61
2023/07/12 02:44:54;;;;;;;1.63;1.60;;;;;;;;;;5049078;28;20235;-60
2023/07/12 02:47:23;;;;;;;1.30;1.30;;;;;;;;;;5051186;28;20693;-60
2023/07/12 02:49:50;;;;;;;2.70;1.50;;;;;;;;;;5046984;28;20697;-60
2023/07/12 02:52:17;;;;;;;3.05;1.90;;;;;;;;;;5045408;28;20729;-60
2023/07/12 02:54:45;;;;;;;2.17;1.88;;;;;;;;;;5050038;28;20870;-60
2023/07/12 02:57:12;;;;;;;1.92;1.50;;;;;;;;;;5065359;28;20214;-59
2023/07/12 02:59:40;;;;;;;1.88;1.88;;;;;;;;;;5063545;28;20206;-60
2023/07/12 03:02:08;;;;;;;3.25;1.35;;;;;;;;;;5044373;28;20674;-60
2023/07/12 03:04:37;;;;;;;1.90;1.80;;;;;;;;;;5042955;28;20330;-60
2023/07/12 03:07:04;;;;;;;2.08;1.98;;;;;;;;;;5050358;28;20208;-60
2023/07/12 03:09:32;;;;;;;2.13;2.03;;;;;;;;;;5063411;28;20256;-60
2023/07/12 03:11:59;;;;;;;3.45;2.00;;;;;;;;;;5059448;28;20211;-62
2023/07/12 03:14:26;;;;;;;1.90;1.75;;;;;;;;;;5068161;28;20222;-59
2023/07/12 03:16:53;;;;;;;2.67;1.73;;;;;;;;;;5051653;28;20692;-59
2023/07/12 03:19:20;;;;;;;1.85;1.60;;;;;;;;;;5052340;28;20211;-60
2023/07/12 03:21:49;;;;;;;1.75;1.65;;;;;;;;;;5059701;28;20289;-60
2023/07/12 03:24:16;;;;;;;1.85;1.75;;;;;;;;;;5051205;28;20207;-60
2023/07/12 03:26:43;;;;;;;2.25;1.73;;;;;;;;;;5062276;28;20896;-60
2023/07/12 03:29:10;;;;;;;1.95;1.85;;;;;;;;;;5050158;28;20208;-59
2023/07/12 03:31:37;;;;;;;1.67;1.58;;;;;;;;;;5062633;28;20284;-59
2023/07/12 03:34:04;;;;;;;2.17;1.98;;;;;;;;;;5069711;28;20223;-59
2023/07/12 03:36:32;;;;;;;2.28;2.17;;;;;;;;;;5069965;28;20264;-59
2023/07/12 03:39:00;;;;;;;2.10;2.00;;;;;;;;;;5069800;28;20207;-59
2023/07/12 03:41:28;;;;;;;1.50;1.40;;;;;;;;;;5068225;28;20214;-62
2023/07/12 03:43:55;;;;;;;1.75;1.65;;;;;;;;;;5054661;28;20222;-59
2023/07/12 03:46:22;;;;;;;3.72;2.22;;;;;;;;;;5060551;28;20730;-59
2023/07/12 03:48:49;;;;;;;1.98;1.77;;;;;;;;;;5069098;28;20203;-63
2023/07/12 03:51:18;;;;;;;4.35;1.92;;;;;;;;;;5069791;28;20215;-63
2023/07/12 03:53:45;;;;;;;5.22;2.03;;;;;;;;;;5068104;28;20252;-64
2023/07/12 03:56:14;;;;;;;2.70;1.73;;;;;;;;;;5048920;28;20207;-64
2023/07/12 03:58:41;;;;;;;1.60;1.60;;;;;;;;;;5049726;28;20277;-64
2023/07/12 04:01:09;;;;;;;3.05;1.80;;;;;;;;;;5049377;28;20200;-63
2023/07/12 04:03:37;;;;;;;2.72;2.08;;;;;;;;;;5050955;28;20226;-63
2023/07/12 04:06:04;;;;;;;1.83;1.73;;;;;;;;;;5069621;28;20777;-63
2023/07/12 04:08:32;;;;;;;1.65;1.48;;;;;;;;;;5059279;28;20558;-63
2023/07/12 04:10:59;;;;;;;2.80;2.15;;;;;;;;;;5064384;28;20207;-63
2023/07/12 04:13:28;;;;;;;1.80;1.70;;;;;;;;;;5056769;28;20211;-62
2023/07/12 04:15:56;;;;;;;2.03;1.80;;;;;;;;;;5049361;28;20231;-63
2023/07/12 04:18:23;;;;;;;1.73;1.50;;;;;;;;;;5060420;28;20207;-63
2023/07/12 04:20:50;;;;;;;7.13;2.10;;;;;;;;;;5058573;28;20199;-63
2023/07/12 04:23:17;;;;;;;1.70;1.70;;;;;;;;;;5057213;28;20211;-63
2023/07/12 04:25:44;;;;;;;1.83;1.75;;;;;;;;;;5058095;28;20203;-63
2023/07/12 04:28:11;;;;;;;1.70;1.60;;;;;;;;;;5060953;28;20208;-63
2023/07/12 04:30:40;;;;;;;2.15;2.05;;;;;;;;;;5068302;28;20362;-63
2023/07/12 04:33:07;;;;;;;1.88;1.77;;;;;;;;;;5067351;28;20338;-64
2023/07/12 04:35:38;;;;;;;4.88;1.95;;;;;;;;;;5055971;28;20231;-64
2023/07/12 04:38:05;;;;;;;3.60;1.77;;;;;;;;;;5049932;28;20203;-64
2023/07/12 04:40:32;;;;;;;2.30;1.80;;;;;;;;;;5064273;28;20210;-64
2023/07/12 04:42:59;;;;;;;1.63;1.58;;;;;;;;;;5063936;28;20219;-64
2023/07/12 04:45:26;;;;;;;2.08;1.95;;;;;;;;;;5055624;28;20704;-64
2023/07/12 04:47:55;;;;;;;3.13;1.83;;;;;;;;;;5057703;28;20240;-64
2023/07/12 04:50:22;;;;;;;2.00;1.85;;;;;;;;;;5068129;28;20207;-65
2023/07/12 04:52:49;;;;;;;1.88;1.70;;;;;;;;;;5066667;28;20218;-64
2023/07/12 04:55:23;;;;;;;2.08;1.98;;;;;;;;;;5066963;28;20704;-64
2023/07/12 04:57:50;;;;;;;1.80;1.70;;;;;;;;;;5067002;28;20202;-65
2023/07/12 05:00:18;;;;;;;4.90;1.88;;;;;;;;;;5049948;28;20211;-64
2023/07/12 05:02:46;;;;;;;2.45;2.10;;;;;;;;;;5052181;28;20665;-64
2023/07/12 05:05:15;;;;;;;1.90;1.80;;;;;;;;;;5057114;28;20234;-64
2023/07/12 05:07:43;;;;;;;2.67;1.95;;;;;;;;;;5060259;28;20206;-64
2023/07/12 05:10:11;;;;;;;2.15;2.05;;;;;;;;;;5061214;28;20195;-64
2023/07/12 05:12:39;;;;;;;1.75;1.75;;;;;;;;;;5067777;28;20264;-63
2023/07/12 05:15:07;;;;;;;2.03;1.85;;;;;;;;;;5065954;28;20219;-63
2023/07/12 05:17:35;;;;;;;2.90;1.88;;;;;;;;;;5051746;28;20203;-64
2023/07/12 05:20:04;;;;;;;1.83;1.73;;;;;;;;;;5049434;28;20240;-64
2023/07/12 05:22:32;;;;;;;2.60;2.40;;;;;;;;;;5048131;28;20204;-64
2023/07/12 05:24:59;;;;;;;1.77;1.67;;;;;;;;;;5048082;28;20207;-63
2023/07/12 05:27:26;;;;;;;2.67;2.47;;;;;;;;;;5058684;28;20622;-63
2023/07/12 05:29:53;;;;;;;2.00;1.90;;;;;;;;;;5053034;28;20212;-63
2023/07/12 05:32:21;;;;;;;1.92;1.83;;;;;;;;;;5049057;28;20215;-63
2023/07/12 05:34:48;;;;;;;2.00;1.90;;;;;;;;;;5048555;28;20239;-63
2023/07/12 05:37:16;;;;;;;2.08;2.08;;;;;;;;;;5056428;28;20211;-63
2023/07/12 05:39:44;;;;;;;3.92;2.20;;;;;;;;;;5056113;28;20220;-63
2023/07/12 05:42:12;;;;;;;2.50;2.30;;;;;;;;;;5065514;28;20213;-63
2023/07/12 05:44:39;;;;;;;2.45;2.33;;;;;;;;;;5066570;28;20203;-63
2023/07/12 05:47:06;;;;;;;2.80;2.60;;;;;;;;;;5065494;28;20203;-66
2023/07/12 05:49:34;;;;;;;9.02;3.28;;;;;;;;;;5060596;28;20204;-64
2023/07/12 05:52:01;;;;;;;8.30;3.90;;;;;;;;;;5057439;28;20203;-64
2023/07/12 05:54:30;;;;;;;4.43;3.67;;;;;;;;;;5058714;28;20207;-63
2023/07/12 05:56:58;;;;;;;3.03;2.83;;;;;;;;;;5046785;28;20290;-63
2023/07/12 05:59:26;;;;;;;6.75;3.15;;;;;;;;;;5047697;28;20220;-63
2023/07/12 06:01:53;;;;;;;2.88;2.78;;;;;;;;;;5048878;28;20440;-63
2023/07/12 06:04:20;;;;;;;2.88;2.67;;;;;;;;;;5066483;28;20240;-62
2023/07/12 06:06:47;;;;;;;3.33;3.08;;;;;;;;;;5057884;28;20626;-62
2023/07/12 06:09:14;;;;;;;4.03;3.17;;;;;;;;;;5064559;28;20206;-63
2023/07/12 06:11:41;;;;;;;3.35;3.13;;;;;;;;;;5066623;28;20199;-63
2023/07/12 06:14:10;;;;;;;3.35;3.03;;;;;;;;;;5066656;28;20229;-63
2023/07/12 06:16:37;;;;;;;4.63;2.85;;;;;;;;;;5066636;28;20237;-63
2023/07/12 06:19:04;;;;;;;3.42;3.17;;;;;;;;;;5066385;28;20680;-63
2023/07/12 06:21:31;;;;;;;3.70;3.33;;;;;;;;;;5059967;28;20688;-63
2023/07/12 06:23:59;;;;;;;4.70;2.70;;;;;;;;;;5057368;28;20721;-63
2023/07/12 06:26:27;;;;;;;1.83;1.83;;;;;;;;;;5066456;28;20205;-62
2023/07/12 06:28:54;;;;;;;1.92;1.30;;;;;;;;;;5066385;28;20310;-63
2023/07/12 06:31:23;;;;;;;0.98;0.95;;;;;;;;;;5064830;28;20223;-63
2023/07/12 06:33:50;;;;;;;1.38;1.30;;;;;;;;;;5046744;28;20254;-63
2023/07/12 06:36:17;;;;;;;1.00;1.00;;;;;;;;;;5046745;28;20262;-62
2023/07/12 06:38:45;;;;;;;0.80;0.80;;;;;;;;;;5046531;28;20231;-62
2023/07/12 06:41:12;;;;;;;1.10;0.93;;;;;;;;;;5056925;28;20493;-64
2023/07/12 06:43:39;;;;;;;1.00;1.00;;;;;;;;;;5055020;28;20223;-63
2023/07/12 06:46:06;;;;;;;0.80;0.80;;;;;;;;;;5066933;28;20272;-65
2023/07/12 06:48:34;;;;;;;1.35;1.25;;;;;;;;;;5066853;28;20713;-65
2023/07/12 06:51:02;;;;;;;1.55;1.20;;;;;;;;;;5066671;28;20207;-60
2023/07/12 06:53:29;;;;;;;0.77;0.77;;;;;;;;;;5048657;28;20212;-65
2023/07/12 06:55:56;;;;;;;0.73;0.73;;;;;;;;;;5057054;28;20227;-62
2023/07/12 06:58:23;;;;;;;0.85;0.85;;;;;;;;;;5070126;28;20214;-62
2023/07/12 07:00:50;;;;;;;0.98;0.98;;;;;;;;;;5067243;28;20613;-62
2023/07/12 07:03:18;;;;;;;0.77;0.77;;;;;;;;;;5050229;28;20216;-62
2023/07/12 07:05:47;;;;;;;1.20;1.20;;;;;;;;;;5050007;28;20757;-62
2023/07/12 07:08:15;;;;;;;0.82;0.82;;;;;;;;;;5049969;28;20219;-60
2023/07/12 07:10:42;;;;;;;0.82;0.82;;;;;;;;;;5049938;28;20204;-59
2023/07/12 07:13:10;;;;;;;1.20;0.80;;;;;;;;;;5050009;28;20208;-61
2023/07/12 07:15:37;;;;;;;1.73;1.00;;;;;;;;;;5052077;28;20231;-63
2023/07/12 07:18:04;;;;;;;0.80;0.80;;;;;;;;;;5069851;28;20290;-63
2023/07/12 07:20:32;;;;;;;0.80;0.80;;;;;;;;;;5066757;28;20791;-63
2023/07/12 07:23:00;;;;;;;1.08;1.00;;;;;;;;;;5050814;28;20214;-63
2023/07/12 07:25:28;;;;;;;1.13;1.10;;;;;;;;;;5063329;28;20276;-63
2023/07/12 07:27:56;;;;;;;0.73;0.73;;;;;;;;;;5054998;28;20235;-59
2023/07/12 07:30:23;;;;;;;1.02;1.02;;;;;;;;;;5069745;28;20253;-64
2023/07/12 07:32:53;;;;;;;0.52;0.52;;;;;;;;;;5054781;28;20701;-63
2023/07/12 07:35:20;;;;;;;1.08;1.08;;;;;;;;;;5055277;28;20227;-63
2023/07/12 07:37:48;;;;;;;0.98;0.98;;;;;;;;;;5060730;28;20215;-63
2023/07/12 07:40:16;;;;;;;1.08;0.93;;;;;;;;;;5055988;28;20208;-63
2023/07/12 07:42:43;;;;;;;1.15;1.15;;;;;;;;;;5056863;28;20234;-63
2023/07/12 07:45:11;;;;;;;1.00;1.00;;;;;;;;;;5068264;28;20288;-63
2023/07/12 07:47:38;;;;;;;1.33;1.20;;;;;;;;;;5068901;28;20348;-63
2023/07/12 07:50:06;;;;;;;1.10;1.10;;;;;;;;;;5068421;28;20309;-64
2023/07/12 07:52:33;;;;;;;1.42;1.42;;;;;;;;;;5068007;28;20211;-63
2023/07/12 07:55:00;;;;;;;0.90;0.90;;;;;;;;;;5067411;28;20207;-63
2023/07/12 07:57:29;;;;;;;1.05;1.05;;;;;;;;;;5066540;28;20564;-63
2023/07/12 07:59:59;;;;;;;1.00;1.00;;;;;;;;;;5068154;28;20582;-65
2023/07/12 08:02:26;;;;;;;1.42;1.40;;;;;;;;;;5068328;28;20684;-64
2023/07/12 08:04:53;;;;;;;1.52;1.40;;;;;;;;;;5067990;28;20238;-63
2023/07/12 08:07:20;;;;;;;1.08;0.98;;;;;;;;;;5068194;28;20206;-62
2023/07/12 08:09:47;;;;;;;2.08;1.30;;;;;;;;;;5067505;28;20269;-63
2023/07/12 08:12:14;;;;;;;1.15;1.15;;;;;;;;;;5068277;28;20314;-63
2023/07/12 08:14:43;;;;;;;1.10;1.00;;;;;;;;;;5067814;28;20226;-63
2023/07/12 08:17:10;;;;;;;1.50;1.20;;;;;;;;;;5047951;28;20226;-63
2023/07/12 08:19:37;;;;;;;1.27;1.27;;;;;;;;;;5048198;28;20249;-63
2023/07/12 08:22:04;;;;;;;1.00;0.98;;;;;;;;;;5047867;28;20234;-63
2023/07/12 08:24:31;;;;;;;1.02;1.02;;;;;;;;;;5061934;28;20588;-63
2023/07/12 08:26:58;;;;;;;1.33;1.33;;;;;;;;;;5050015;28;20210;-65
2023/07/12 08:29:25;;;;;;;1.20;0.95;;;;;;;;;;5056869;28;20208;-62
2023/07/12 08:31:54;;;;;;;1.30;1.30;;;;;;;;;;5056193;28;20786;-63
2023/07/12 08:34:21;;;;;;;1.30;1.30;;;;;;;;;;5056394;28;20214;-62
2023/07/12 08:36:48;;;;;;;3.30;1.30;;;;;;;;;;5048061;28;20230;-63
2023/07/12 08:39:15;;;;;;;1.08;1.08;;;;;;;;;;5053254;28;20223;-62
2023/07/12 08:41:42;;;;;;;1.17;1.17;;;;;;;;;;5047305;28;20278;-62
2023/07/12 08:44:12;;;;;;;1.30;1.30;;;;;;;;;;5057451;28;20220;-62
2023/07/12 08:46:42;;;;;;;1.20;1.20;;;;;;;;;;5051123;28;20211;-63
2023/07/12 08:49:18;;;;;;;1.10;1.10;;;;;;;;;;5056322;28;20253;-63
2023/07/12 08:51:45;;;;;;;1.42;1.33;;;;;;;;;;5059472;28;20207;-61
2023/07/12 08:54:21;;;;;;;1.10;1.00;;;;;;;;;;5057309;28;20215;-60
2023/07/12 08:56:48;;;;;;;1.23;1.23;;;;;;;;;;5060719;28;20227;-60
2023/07/12 08:59:17;;;;;;;1.13;1.13;;;;;;;;;;5064824;28;20207;-61
2023/07/12 09:01:45;;;;;;;1.02;1.02;;;;;;;;;;5053149;28;20285;-60
2023/07/12 09:04:21;;;;;;;1.00;1.00;;;;;;;;;;5059517;28;20736;-61
2023/07/12 09:06:50;;;;;;;1.15;1.15;;;;;;;;;;5048180;28;20207;-61
2023/07/12 09:09:17;;;;;;;1.13;1.08;;;;;;;;;;5057648;28;20195;-61
2023/07/12 09:11:44;;;;;;;2.03;1.13;;;;;;;;;;5065978;28;20294;-61
2023/07/12 09:14:15;;;;;;;1.30;1.30;;;;;;;;;;5065353;28;20250;-60
2023/07/12 09:16:42;;;;;;;1.65;1.40;;;;;;;;;;5065411;28;20227;-60
2023/07/12 09:19:13;;;;;;;1.48;1.38;;;;;;;;;;5061705;28;20257;-60
2023/07/12 09:21:47;;;;;;;1.20;1.20;;;;;;;;;;5046655;28;20234;-60
2023/07/12 09:24:15;;;;;;;1.40;1.30;;;;;;;;;;5047162;28;20204;-60
2023/07/12 09:26:42;;;;;;;1.20;1.20;;;;;;;;;;5047978;28;20203;-60
2023/07/12 09:29:13;;;;;;;1.52;1.42;;;;;;;;;;5053629;28;20219;-60
2023/07/12 09:31:41;;;;;;;1.30;1.30;;;;;;;;;;5052415;28;20265;-60
2023/07/12 09:34:16;;;;;;;1.17;1.17;;;;;;;;;;5056642;28;20210;-60
2023/07/12 09:36:44;;;;;;;1.20;1.20;;;;;;;;;;5066083;28;20279;-60
2023/07/12 09:39:12;;;;;;;1.45;1.42;;;;;;;;;;5066558;28;20286;-60
2023/07/12 09:41:47;;;;;;;1.73;1.35;;;;;;;;;;5062071;28;20224;-60
2023/07/12 09:44:15;;;;;;;2.47;1.10;;;;;;;;;;5064283;28;20610;-60
2023/07/12 09:46:45;;;;;;;2.13;1.60;;;;;;;;;;5060995;28;20264;-60
2023/07/12 09:49:14;;;;;;;1.08;1.08;;;;;;;;;;5054139;28;20291;-60
2023/07/12 09:51:43;;;;;;;1.42;1.30;;;;;;;;;;5046506;28;20222;-60
2023/07/12 09:54:20;;;;;;;1.20;1.20;;;;;;;;;;5045565;28;20674;-60
2023/07/12 09:56:50;;;;;;;1.38;1.38;;;;;;;;;;5045912;28;20223;-60
2023/07/12 09:59:26;;;;;;;1.67;1.58;;;;;;;;;;5054243;28;20206;-60
2023/07/12 10:01:54;;;;;;;1.25;1.10;;;;;;;;;;5064074;28;20217;-60
2023/07/12 10:04:32;;;;;;;1.10;1.10;;;;;;;;;;5053371;28;20295;-60
2023/07/12 10:06:59;;;;;;;1.30;1.30;;;;;;;;;;5052021;28;20200;-60
2023/07/12 10:09:31;;;;;;;2.75;1.42;;;;;;;;;;5053029;28;20235;-60
2023/07/12 10:12:01;;;;;;;1.10;1.10;;;;;;;;;;5063764;28;20218;-58
2023/07/12 10:14:32;;;;;;;1.48;1.48;;;;;;;;;;5063953;28;20210;-59
2023/07/12 10:16:59;;;;;;;1.10;1.10;;;;;;;;;;5049447;28;20224;-59
2023/07/12 10:19:28;;;;;;;1.75;1.30;;;;;;;;;;5051906;28;20210;-58
2023/07/12 10:21:58;;;;;;;1.42;1.42;;;;;;;;;;5064046;28;20732;-58
2023/07/12 10:24:31;;;;;;;1.02;1.02;;;;;;;;;;5061260;28;20211;-58
2023/07/12 10:27:00;;;;;;;1.48;1.38;;;;;;;;;;5053522;28;20211;-58
2023/07/12 10:29:30;;;;;;;1.08;1.08;;;;;;;;;;5058284;28;20241;-58
2023/07/12 10:32:00;;;;;;;1.30;1.30;;;;;;;;;;5049997;28;20223;-58
2023/07/12 10:34:29;;;;;;;0.98;0.98;;;;;;;;;;5051133;28;20207;-58
2023/07/12 10:36:57;;;;;;;0.98;0.98;;;;;;;;;;5069088;28;20238;-59
2023/07/12 10:39:25;;;;;;;0.90;0.90;;;;;;;;;;5063784;28;20199;-59
2023/07/12 10:41:56;;;;;;;0.85;0.80;;;;;;;;;;5067930;28;20834;-59
2023/07/12 10:44:26;;;;;;;0.90;0.90;;;;;;;;;;5068618;28;20417;-59
2023/07/12 10:46:55;;;;;;;0.75;0.75;;;;;;;;;;5060115;28;20211;-59
2023/07/12 10:49:38;;;;;;;0.63;0.63;;;;;;;;;;5054183;28;20210;-59
2023/07/12 10:52:06;;;;;;;0.50;0.50;;;;;;;;;;5057900;28;20211;-60
2023/07/12 10:54:44;;;;;;;0.50;0.50;;;;;;;;;;5067776;28;20287;-60
2023/07/12 10:57:24;;;;;;;0.50;0.50;;;;;;;;;;5052097;28;20256;-67
2023/07/12 10:59:59;;;;;;;0.50;0.50;;;;;;;;;;5053580;28;20211;-61
2023/07/12 11:02:28;;;;;;;0.50;0.50;;;;;;;;;;5054014;28;20207;-60
2023/07/12 11:04:55;;;;;;;0.50;0.50;;;;;;;;;;5068348;28;20242;-60
2023/07/12 11:07:30;;;;;;;0.60;0.60;;;;;;;;;;5050389;28;20215;-59
2023/07/12 11:10:21;;;;;;;1.13;0.65;;;;;;;;;;5054320;28;20226;-59
2023/07/12 11:12:53;;;;;;;0.50;0.50;;;;;;;;;;5045691;28;20211;-65
2023/07/12 11:15:23;;;;;;;0.68;0.68;;;;;;;;;;5063074;28;20232;-59
2023/07/12 11:17:52;;;;;;;0.55;0.55;;;;;;;;;;5047809;28;20646;-59
2023/07/12 11:20:23;;;;;;;0.50;0.50;;;;;;;;;;5056503;28;20291;-60
2023/07/12 11:22:58;;;;;;;1.70;0.50;;;;;;;;;;5056974;28;20202;-60
2023/07/12 11:25:31;;;;;;;0.60;0.60;;;;;;;;;;5064409;28;20203;-59
2023/07/12 11:28:00;;;;;;;0.40;0.40;;;;;;;;;;5057921;28;20695;-58
2023/07/12 11:30:41;;;;;;;0.52;0.52;;;;;;;;;;5061374;28;20203;-58
2023/07/12 11:33:21;;;;;;;0.50;0.50;;;;;;;;;;5050849;28;20571;-59
2023/07/12 11:35:49;;;;;;;0.73;0.73;;;;;;;;;;5061619;28;20208;-59
2023/07/12 11:38:19;;;;;;;0.70;0.50;;;;;;;;;;5067384;28;20371;-59
2023/07/12 11:40:47;;;;;;;0.70;0.70;;;;;;;;;;5067602;28;20203;-58
2023/07/12 11:43:29;;;;;;;0.50;0.50;;;;;;;;;;5050379;28;20251;-59
2023/07/12 11:45:58;;;;;;;0.63;0.63;;;;;;;;;;5068784;28;20218;-59
2023/07/12 11:48:26;;;;;;;1.05;0.60;;;;;;;;;;5068856;28;20210;-59
2023/07/12 11:50:54;;;;;;;0.52;0.52;;;;;;;;;;5068853;28;20633;-59
2023/07/12 11:53:22;;;;;;;0.65;0.65;;;;;;;;;;5061221;28;20483;-60
2023/07/12 11:55:49;;;;;;;0.40;0.40;;;;;;;;;;5059917;28;20212;-60
2023/07/12 11:58:16;;;;;;;0.93;0.80;;;;;;;;;;5066030;28;20227;-59
2023/07/12 12:00:45;;;;;;;0.50;0.50;;;;;;;;;;5059058;28;20207;-59
2023/07/12 12:03:14;;;;;;;0.73;0.73;;;;;;;;;;5059748;28;20622;-65
2023/07/12 12:05:41;;;;;;;0.32;0.32;;;;;;;;;;5065603;28;20251;-60
2023/07/12 12:08:11;;;;;;;0.60;0.60;;;;;;;;;;5053200;28;20299;-59
2023/07/12 12:10:40;;;;;;;0.50;0.50;;;;;;;;;;5049970;28;20700;-60
2023/07/12 12:13:16;;;;;;;2.20;0.60;;;;;;;;;;5057122;28;20243;-60
2023/07/12 12:15:46;;;;;;;0.55;0.40;;;;;;;;;;5055635;28;20216;-59
2023/07/12 12:18:16;;;;;;;2.35;0.88;;;;;;;;;;5054388;28;20221;-59
2023/07/12 12:20:52;;;;;;;1.35;0.57;;;;;;;;;;5055766;28;20199;-60
2023/07/12 12:23:21;;;;;;;1.80;0.50;;;;;;;;;;5054736;28;20210;-59
2023/07/12 12:25:48;;;;;;;0.50;0.50;;;;;;;;;;5055727;28;20202;-60
2023/07/12 12:28:24;;;;;;;0.50;0.50;;;;;;;;;;5054939;28;20264;-60
2023/07/12 12:30:57;;;;;;;0.60;0.52;;;;;;;;;;5056426;28;20681;-59
2023/07/12 12:33:26;;;;;;;0.40;0.40;;;;;;;;;;5055933;28;20219;-61
2023/07/12 12:35:58;;;;;;;0.50;0.50;;;;;;;;;;5054920;28;20207;-61
2023/07/12 12:38:28;;;;;;;0.40;0.40;;;;;;;;;;5056304;28;20238;-61
2023/07/12 12:40:58;;;;;;;0.50;0.40;;;;;;;;;;5053446;28;20203;-60
2023/07/12 12:43:25;;;;;;;0.68;0.68;;;;;;;;;;5054039;28;20254;-61
2023/07/12 12:45:54;;;;;;;0.55;0.55;;;;;;;;;;5054291;28;20741;-61
2023/07/12 12:48:21;;;;;;;0.60;0.60;;;;;;;;;;5043062;28;20211;-61
2023/07/12 12:50:54;;;;;;;0.50;0.50;;;;;;;;;;5054368;28;20202;-58
2023/07/12 12:53:21;;;;;;;1.88;0.73;;;;;;;;;;5065667;28;20217;-59
2023/07/12 12:55:49;;;;;;;0.90;0.90;;;;;;;;;;5066966;28;20213;-60
2023/07/12 12:58:16;;;;;;;1.05;0.80;;;;;;;;;;5067507;28;20234;-60
2023/07/12 13:00:46;;;;;;;0.70;0.70;;;;;;;;;;5067311;28;20673;-60
2023/07/12 13:03:15;;;;;;;0.60;0.60;;;;;;;;;;5058170;28;20207;-61
2023/07/12 13:05:42;;;;;;;0.38;0.38;;;;;;;;;;5050960;28;20246;-59
2023/07/12 13:08:16;;;;;;;0.50;0.50;;;;;;;;;;5046635;28;20216;-60
2023/07/12 13:10:43;;;;;;;0.50;0.50;;;;;;;;;;5067336;28;20302;-59
2023/07/12 13:13:14;;;;;;;0.80;0.75;;;;;;;;;;5054080;28;20211;-59
2023/07/12 13:15:41;;;;;;;0.60;0.60;;;;;;;;;;5054583;28;20306;-58
2023/07/12 13:18:10;;;;;;;0.50;0.50;;;;;;;;;;5062495;28;20235;-64
2023/07/12 13:20:37;;;;;;;0.52;0.52;;;;;;;;;;5054426;28;20207;-59
2023/07/12 13:23:04;;;;;;;0.50;0.50;;;;;;;;;;5066068;28;20688;-61
2023/07/12 13:25:33;;;;;;;0.75;0.75;;;;;;;;;;5065412;28;20257;-61
2023/07/12 13:28:00;;;;;;;0.50;0.50;;;;;;;;;;5054087;28;20242;-61
2023/07/12 13:30:29;;;;;;;0.55;0.55;;;;;;;;;;5058467;28;20210;-61
2023/07/12 13:32:56;;;;;;;0.60;0.60;;;;;;;;;;5063057;28;20208;-59
2023/07/12 13:35:24;;;;;;;0.68;0.68;;;;;;;;;;5051964;28;20222;-60
2023/07/12 13:37:52;;;;;;;0.57;0.50;;;;;;;;;;5052791;28;20240;-62
2023/07/12 13:40:20;;;;;;;0.50;0.50;;;;;;;;;;5064937;28;20679;-60
2023/07/12 13:45:52;;;;;;;0.40;0.40;;;;;;;;;;5038911;28;20767;-59
2023/07/12 13:48:22;;;;;;;0.60;0.60;;;;;;;;;;5057809;28;20195;-60
2023/07/12 13:50:49;;;;;;;0.40;0.40;;;;;;;;;;5057915;28;20203;-60
2023/07/12 13:53:16;;;;;;;0.60;0.60;;;;;;;;;;5066166;28;20217;-60
2023/07/12 13:55:43;;;;;;;0.50;0.50;;;;;;;;;;5066425;28;20210;-60
2023/07/12 13:58:11;;;;;;;0.73;0.50;;;;;;;;;;5066469;28;20743;-60
2023/07/12 14:00:38;;;;;;;0.50;0.50;;;;;;;;;;5066168;28;20556;-60
2023/07/12 14:03:06;;;;;;;0.40;0.40;;;;;;;;;;5054455;28;20210;-61
2023/07/12 14:05:33;;;;;;;0.55;0.55;;;;;;;;;;5053578;28;20701;-60
2023/07/12 14:08:01;;;;;;;0.63;0.63;;;;;;;;;;5066870;28;20206;-60
2023/07/12 14:10:28;;;;;;;1.20;0.60;;;;;;;;;;5063352;28;20218;-60
2023/07/12 14:12:55;;;;;;;0.40;0.40;;;;;;;;;;5055011;28;20203;-60
2023/07/12 14:15:24;;;;;;;1.00;0.50;;;;;;;;;;5055658;28;20203;-60
2023/07/12 14:17:51;;;;;;;0.52;0.52;;;;;;;;;;5053869;28;20289;-60
2023/07/12 14:20:19;;;;;;;0.47;0.47;;;;;;;;;;5050376;28;20222;-60
2023/07/12 14:22:46;;;;;;;0.60;0.60;;;;;;;;;;5069771;28;20271;-60
2023/07/12 14:25:18;;;;;;;0.40;0.40;;;;;;;;;;5062335;28;20294;-61
2023/07/12 14:27:45;;;;;;;0.50;0.50;;;;;;;;;;5049791;28;20212;-60
2023/07/12 14:30:12;;;;;;;2.55;0.40;;;;;;;;;;5049749;28;20222;-60
2023/07/12 14:32:41;;;;;;;0.40;0.40;;;;;;;;;;5068544;28;20668;-60
2023/07/12 14:35:14;;;;;;;0.50;0.50;;;;;;;;;;5066326;28;20265;-60
2023/07/12 14:37:41;;;;;;;0.50;0.50;;;;;;;;;;5069140;28;20604;-60
2023/07/12 14:40:10;;;;;;;0.50;0.50;;;;;;;;;;5069271;28;20226;-60
2023/07/12 14:42:37;;;;;;;0.50;0.50;;;;;;;;;;5064293;28;20257;-60
2023/07/12 14:45:04;;;;;;;2.33;0.50;;;;;;;;;;5049979;28;20207;-60
2023/07/12 14:47:31;;;;;;;0.40;0.40;;;;;;;;;;5067001;28;20364;-60
2023/07/12 14:49:59;;;;;;;0.40;0.40;;;;;;;;;;5068405;28;20673;-60
2023/07/12 14:52:29;;;;;;;0.38;0.38;;;;;;;;;;5060996;28;20204;-60
2023/07/12 14:54:57;;;;;;;0.43;0.43;;;;;;;;;;5053838;28;20294;-60